Time;durP1;ratioP1;P1;durP2;ratioP2;P2;SDS_P1;SDS_P2;PMS_P1;PMS_P2;Temp;Humidity;BMP_temperature;BMP_pressure;BME280_temperature;BME280_humidity;BME280_pressure;Samples;Min_cycle;Max_cycle;Signal;HPM_P1;HPM_P2
2023/05/24 00:01:06;;;;;;;;;;;8.90;99.90;;;;;;5134712;27;19915;-42
2023/05/24 00:03:33;;;;;;;;;;;9.00;99.90;;;;;;5135366;27;19961;-43
2023/05/24 00:05:59;;;;;;;;;;;9.10;99.90;;;;;;5135374;27;19919;-45
2023/05/24 00:08:25;;;;;;;;;;;9.10;99.90;;;;;;5134615;27;20390;-42
2023/05/24 00:10:50;;;;;;;;;;;9.10;99.90;;;;;;5135250;27;19908;-43
2023/05/24 00:13:16;;;;;;;;;;;9.10;99.90;;;;;;5135303;27;19957;-42
2023/05/24 00:15:42;;;;;;;;;;;9.00;99.90;;;;;;5134533;27;19930;-43
2023/05/24 00:18:07;;;;;;;;;;;8.90;99.90;;;;;;5135108;27;19911;-43
2023/05/24 00:20:33;;;;;;;;;;;8.80;99.90;;;;;;5135124;27;20441;-44
2023/05/24 00:22:58;;;;;;;;;;;8.70;99.90;;;;;;5134251;27;20347;-43
2023/05/24 00:25:23;;;;;;;;;;;8.70;99.90;;;;;;5134750;27;19915;-46
2023/05/24 00:27:49;;;;;;;;;;;8.70;99.90;;;;;;5134684;27;19908;-43
2023/05/24 00:30:14;;;;;;;;;;;8.80;99.90;;;;;;5133955;27;20315;-43
2023/05/24 00:32:40;;;;;;;;;;;8.90;99.90;;;;;;5134902;27;19913;-46
2023/05/24 00:35:06;;;;;;;;;;;9.00;99.90;;;;;;5133710;27;20373;-46
2023/05/24 00:37:31;;;;;;;;;;;9.10;99.90;;;;;;5134627;27;19933;-47
2023/05/24 00:39:57;;;;;;;;;;;9.10;99.90;;;;;;5134748;27;20380;-44
2023/05/24 00:42:22;;;;;;;;;;;9.00;99.90;;;;;;5133964;27;19908;-42
2023/05/24 00:44:48;;;;;;;;;;;8.90;99.90;;;;;;5134533;27;19960;-42
2023/05/24 00:47:14;;;;;;;;;;;8.70;99.90;;;;;;5134574;27;19964;-46
2023/05/24 00:49:40;;;;;;;;;;;8.50;99.90;;;;;;5133828;27;20366;-42
2023/05/24 00:52:05;;;;;;;;;;;8.40;99.90;;;;;;5134763;27;19914;-43
2023/05/24 00:54:31;;;;;;;;;;;8.30;99.90;;;;;;5134408;27;19908;-44
2023/05/24 00:56:57;;;;;;;;;;;8.30;99.90;;;;;;5133639;27;19915;-43
2023/05/24 00:59:22;;;;;;;;;;;8.20;99.90;;;;;;5134318;27;20362;-46
2023/05/24 01:01:48;;;;;;;;;;;8.20;99.90;;;;;;5134482;27;20388;-43
2023/05/24 01:04:16;;;;;;;;;;;8.20;99.90;;;;;;5133495;27;19916;-43
2023/05/24 01:06:56;;;;;;;;;;;8.20;99.90;;;;;;5134235;27;19914;-44
2023/05/24 01:09:27;;;;;;;;;;;8.10;99.90;;;;;;5134256;27;20285;-46
2023/05/24 01:11:53;;;;;;;;;;;8.10;99.90;;;;;;5133570;27;19908;-43
2023/05/24 01:14:36;;;;;;;;;;;8.00;99.90;;;;;;5134147;27;19970;-43
2023/05/24 01:17:19;;;;;;;;;;;8.00;99.90;;;;;;5134105;27;19908;-45
2023/05/24 01:19:48;;;;;;;;;;;8.10;99.90;;;;;;5133958;27;19953;-44
2023/05/24 01:22:27;;;;;;;;;;;8.10;99.90;;;;;;5133888;27;19918;-44
2023/05/24 01:24:52;;;;;;;;;;;8.00;99.90;;;;;;5132856;27;19915;-45
2023/05/24 01:27:20;;;;;;;;;;;8.00;99.90;;;;;;5133923;27;20028;-43
2023/05/24 01:29:52;;;;;;;;;;;8.00;99.90;;;;;;5119959;27;19908;-44
2023/05/24 01:32:20;;;;;;;;;;;7.90;99.90;;;;;;5112308;28;19916;-44
2023/05/24 01:34:46;;;;;;;;;;;8.00;99.90;;;;;;5095624;28;20267;-45
2023/05/24 01:37:11;;;;;;;;;;;8.00;99.90;;;;;;5130833;27;19918;-44
2023/05/24 01:39:36;;;;;;;;;;;8.00;99.90;;;;;;5132407;27;19915;-43
2023/05/24 01:42:02;;;;;;;;;;;8.10;99.90;;;;;;5132447;27;20307;-43
2023/05/24 01:44:30;;;;;;;;;;;8.00;99.90;;;;;;5132767;27;19940;-44
2023/05/24 01:47:00;;;;;;;;;;;8.10;99.90;;;;;;5132726;28;19911;-44
2023/05/24 01:49:28;;;;;;;;;;;8.20;99.90;;;;;;5133282;28;19915;-42
2023/05/24 01:52:05;;;;;;;;;;;8.30;99.90;;;;;;5131098;28;19918;-42
2023/05/24 01:54:32;;;;;;;;;;;8.40;99.90;;;;;;5121078;28;19964;-42
2023/05/24 01:56:57;;;;;;;;;;;8.50;99.90;;;;;;5133637;28;19954;-43
2023/05/24 01:59:24;;;;;;;;;;;8.50;99.90;;;;;;5118419;28;19943;-43
2023/05/24 02:01:50;;;;;;;;;;;8.50;99.90;;;;;;5113251;28;19953;-44
2023/05/24 02:04:16;;;;;;;;;;;8.50;99.90;;;;;;5112950;28;19915;-45
2023/05/24 02:06:42;;;;;;;;;;;8.50;99.90;;;;;;5112262;28;19962;-43
2023/05/24 02:09:07;;;;;;;;;;;8.60;99.90;;;;;;5112998;28;19965;-46
2023/05/24 02:11:33;;;;;;;;;;;8.60;99.90;;;;;;5126869;28;19915;-43
2023/05/24 02:13:58;;;;;;;;;;;8.50;99.90;;;;;;5132628;28;19907;-43
2023/05/24 02:16:25;;;;;;;;;;;8.50;99.90;;;;;;5133591;28;19919;-44
2023/05/24 02:18:51;;;;;;;;;;;8.50;99.90;;;;;;5133506;28;19990;-45
2023/05/24 02:21:17;;;;;;;;;;;8.50;99.90;;;;;;5132539;28;20037;-45
2023/05/24 02:23:42;;;;;;;;;;;8.50;99.90;;;;;;5133433;28;19914;-45
2023/05/24 02:26:10;;;;;;;;;;;8.40;99.90;;;;;;5133167;28;20316;-44
2023/05/24 02:28:36;;;;;;;;;;;8.40;99.90;;;;;;5132519;28;19938;-44
2023/05/24 02:31:01;;;;;;;;;;;8.30;99.90;;;;;;5133293;28;20369;-45
2023/05/24 02:33:28;;;;;;;;;;;8.20;99.90;;;;;;5133267;28;19919;-43
2023/05/24 02:35:55;;;;;;;;;;;8.20;99.90;;;;;;5134023;27;20370;-44
2023/05/24 02:38:20;;;;;;;;;;;8.10;99.90;;;;;;5137132;27;19960;-43
2023/05/24 02:40:46;;;;;;;;;;;8.10;99.90;;;;;;5137140;27;19907;-42
2023/05/24 02:43:11;;;;;;;;;;;8.10;99.90;;;;;;5136235;27;20369;-43
2023/05/24 02:45:37;;;;;;;;;;;8.10;99.90;;;;;;5136966;27;19968;-42
2023/05/24 02:48:02;;;;;;;;;;;8.10;99.90;;;;;;5123129;27;19994;-43
2023/05/24 02:50:28;;;;;;;;;;;8.10;99.90;;;;;;5115521;28;20277;-43
2023/05/24 02:52:53;;;;;;;;;;;8.10;99.90;;;;;;5116142;28;19918;-44
2023/05/24 02:55:18;;;;;;;;;;;8.10;99.90;;;;;;5116158;28;19916;-43
2023/05/24 02:57:44;;;;;;;;;;;8.10;99.90;;;;;;5115387;28;19912;-45
2023/05/24 03:00:10;;;;;;;;;;;8.00;99.90;;;;;;5115915;28;19912;-46
2023/05/24 03:02:39;;;;;;;;;;;8.00;99.90;;;;;;5115564;28;19915;-51
2023/05/24 03:05:05;;;;;;;;;;;8.00;99.90;;;;;;5116128;28;19916;-45
2023/05/24 03:07:31;;;;;;;;;;;8.00;99.90;;;;;;5115980;28;19915;-43
2023/05/24 03:09:56;;;;;;;;;;;8.00;99.90;;;;;;5115224;28;19912;-44
2023/05/24 03:12:22;;;;;;;;;;;8.10;99.90;;;;;;5115929;28;19961;-44
2023/05/24 03:14:47;;;;;;;;;;;8.10;99.90;;;;;;5115861;28;19908;-43
2023/05/24 03:17:13;;;;;;;;;;;8.10;99.90;;;;;;5115137;28;20390;-44
2023/05/24 03:19:38;;;;;;;;;;;8.20;99.90;;;;;;5115849;28;19953;-44
2023/05/24 03:22:03;;;;;;;;;;;8.30;99.90;;;;;;5115740;28;19994;-42
2023/05/24 03:24:29;;;;;;;;;;;8.30;99.90;;;;;;5114784;28;20393;-42
2023/05/24 03:26:54;;;;;;;;;;;8.30;99.90;;;;;;5115660;28;20378;-44
2023/05/24 03:29:20;;;;;;;;;;;8.40;99.90;;;;;;5115601;28;19968;-46
2023/05/24 03:31:45;;;;;;;;;;;8.40;99.90;;;;;;5114899;28;20017;-46
2023/05/24 03:34:11;;;;;;;;;;;8.40;99.90;;;;;;5115399;28;19908;-45
2023/05/24 03:36:36;;;;;;;;;;;8.50;99.90;;;;;;5115180;28;19944;-44
2023/05/24 03:39:04;;;;;;;;;;;8.50;99.90;;;;;;5113755;28;21456;-42
2023/05/24 03:41:29;;;;;;;;;;;8.50;99.90;;;;;;5115364;28;19943;-45
2023/05/24 03:43:55;;;;;;;;;;;8.50;99.90;;;;;;5115325;28;20320;-42
2023/05/24 03:46:20;;;;;;;;;;;8.60;99.90;;;;;;5113868;28;19955;-45
2023/05/24 03:48:47;;;;;;;;;;;8.60;99.90;;;;;;5135443;27;19914;-44
2023/05/24 03:51:12;;;;;;;;;;;8.70;99.90;;;;;;5135773;27;19907;-45
2023/05/24 03:53:37;;;;;;;;;;;8.70;99.90;;;;;;5134970;27;19930;-45
2023/05/24 03:56:03;;;;;;;;;;;8.80;99.90;;;;;;5115040;27;19912;-43
2023/05/24 03:58:28;;;;;;;;;;;8.80;99.90;;;;;;5115944;27;19925;-43
2023/05/24 04:00:54;;;;;;;;;;;8.90;99.90;;;;;;5123474;27;20384;-43
2023/05/24 04:03:20;;;;;;;;;;;8.90;99.90;;;;;;5135126;27;19911;-45
2023/05/24 04:05:46;;;;;;;;;;;8.90;99.90;;;;;;5122267;27;19927;-46
2023/05/24 04:08:13;;;;;;;;;;;8.90;99.90;;;;;;5142902;27;19907;-43
2023/05/24 04:10:39;;;;;;;;;;;8.90;99.90;;;;;;5149756;27;19915;-46
2023/05/24 04:13:04;;;;;;;;;;;9.00;99.90;;;;;;5134555;27;20269;-42
2023/05/24 04:15:30;;;;;;;;;;;8.90;99.90;;;;;;5132829;27;20006;-44
2023/05/24 04:17:56;;;;;;;;;;;8.90;99.90;;;;;;5147676;27;19911;-45
2023/05/24 04:20:24;;;;;;;;;;;9.00;99.90;;;;;;5131972;27;19911;-45
2023/05/24 04:22:50;;;;;;;;;;;9.00;99.90;;;;;;5124494;27;19950;-43
2023/05/24 04:25:15;;;;;;;;;;;9.10;99.90;;;;;;5128947;27;19966;-44
2023/05/24 04:27:41;;;;;;;;;;;9.10;99.90;;;;;;5138081;27;20464;-47
2023/05/24 04:30:08;;;;;;;;;;;9.20;99.90;;;;;;5138030;27;19911;-45
2023/05/24 04:32:33;;;;;;;;;;;9.20;99.90;;;;;;5133052;27;19972;-45
2023/05/24 04:35:01;;;;;;;;;;;9.30;99.90;;;;;;5133797;27;19932;-45
2023/05/24 04:37:28;;;;;;;;;;;9.40;99.90;;;;;;5134716;27;20266;-43
2023/05/24 04:39:53;;;;;;;;;;;9.40;99.90;;;;;;5134557;27;19953;-42
2023/05/24 04:42:19;;;;;;;;;;;9.50;99.90;;;;;;5115875;27;19907;-45
2023/05/24 04:44:44;;;;;;;;;;;9.50;99.90;;;;;;5113998;28;20374;-44
2023/05/24 04:47:11;;;;;;;;;;;9.60;99.90;;;;;;5113931;28;19915;-45
2023/05/24 04:49:37;;;;;;;;;;;9.60;99.90;;;;;;5113372;28;19908;-44
2023/05/24 04:52:03;;;;;;;;;;;9.70;99.90;;;;;;5124533;27;19907;-44
2023/05/24 04:54:29;;;;;;;;;;;9.70;99.90;;;;;;5134521;27;19908;-43
2023/05/24 04:56:54;;;;;;;;;;;9.70;99.90;;;;;;5133630;27;19911;-44
2023/05/24 04:59:20;;;;;;;;;;;9.80;99.90;;;;;;5128009;27;19943;-47
2023/05/24 05:01:45;;;;;;;;;;;9.80;99.90;;;;;;5134070;27;19907;-44
2023/05/24 05:04:11;;;;;;;;;;;9.90;99.90;;;;;;5133369;27;20161;-43
2023/05/24 05:06:38;;;;;;;;;;;9.90;99.90;;;;;;5134027;27;19908;-44
2023/05/24 05:09:08;;;;;;;;;;;9.90;99.90;;;;;;5134054;27;19907;-46
2023/05/24 05:11:34;;;;;;;;;;;10.00;99.90;;;;;;5129160;27;19914;-42
2023/05/24 05:14:00;;;;;;;;;;;10.10;99.90;;;;;;5118259;27;19915;-45
2023/05/24 05:16:25;;;;;;;;;;;10.20;99.90;;;;;;5112713;28;19947;-43
2023/05/24 05:18:50;;;;;;;;;;;10.30;99.90;;;;;;5120577;27;19938;-44
2023/05/24 05:21:17;;;;;;;;;;;10.40;99.90;;;;;;5138622;27;19907;-43
2023/05/24 05:23:42;;;;;;;;;;;10.50;99.90;;;;;;5128275;27;19965;-44
2023/05/24 05:26:08;;;;;;;;;;;10.50;99.90;;;;;;5121418;27;19919;-44
2023/05/24 05:28:33;;;;;;;;;;;10.50;99.90;;;;;;5122687;27;20003;-44
2023/05/24 05:30:59;;;;;;;;;;;10.60;99.90;;;;;;5130539;27;19981;-44
2023/05/24 05:33:24;;;;;;;;;;;10.60;99.90;;;;;;5122502;27;19916;-46
2023/05/24 05:35:50;;;;;;;;;;;10.60;99.90;;;;;;5137265;27;19919;-43
2023/05/24 05:38:15;;;;;;;;;;;10.60;99.90;;;;;;5126486;27;19912;-44
2023/05/24 05:40:41;;;;;;;;;;;10.60;99.90;;;;;;5129089;27;20469;-44
2023/05/24 05:43:08;;;;;;;;;;;10.60;99.90;;;;;;5126287;27;19912;-44
2023/05/24 05:45:33;;;;;;;;;;;10.60;99.90;;;;;;5130460;27;19927;-44
2023/05/24 05:47:59;;;;;;;;;;;10.60;99.90;;;;;;5131267;27;20286;-43
2023/05/24 05:50:24;;;;;;;;;;;10.60;99.90;;;;;;5133468;28;20357;-44
2023/05/24 05:52:49;;;;;;;;;;;10.70;99.90;;;;;;5125749;28;20346;-42
2023/05/24 05:55:15;;;;;;;;;;;10.70;99.90;;;;;;5116918;28;19925;-45
2023/05/24 05:57:40;;;;;;;;;;;10.80;99.90;;;;;;5124817;28;20316;-43
2023/05/24 06:00:06;;;;;;;;;;;10.90;99.90;;;;;;5121905;28;19908;-44
2023/05/24 06:02:32;;;;;;;;;;;11.00;99.90;;;;;;5108382;28;20257;-45
2023/05/24 06:04:57;;;;;;;;;;;11.20;99.90;;;;;;5129252;28;19916;-45
2023/05/24 06:07:23;;;;;;;;;;;11.30;99.90;;;;;;5123227;28;20032;-44
2023/05/24 06:09:48;;;;;;;;;;;11.40;99.90;;;;;;5119534;28;19919;-46
2023/05/24 06:12:14;;;;;;;;;;;11.50;99.90;;;;;;5132781;27;19936;-46
2023/05/24 06:14:39;;;;;;;;;;;11.60;99.90;;;;;;5130458;27;19912;-44
2023/05/24 06:17:05;;;;;;;;;;;11.70;99.90;;;;;;5118643;27;19907;-44
2023/05/24 06:19:31;;;;;;;;;;;11.80;99.90;;;;;;5136346;27;19911;-49
2023/05/24 06:21:57;;;;;;;;;;;11.80;99.90;;;;;;5147852;27;19965;-44
2023/05/24 06:24:23;;;;;;;;;;;11.90;99.90;;;;;;5146430;27;19966;-43
2023/05/24 06:26:49;;;;;;;;;;;12.00;99.90;;;;;;5144384;27;19911;-43
2023/05/24 06:29:15;;;;;;;;;;;12.10;99.90;;;;;;5157949;27;19911;-45
2023/05/24 06:31:42;;;;;;;;;;;12.20;99.90;;;;;;5126702;27;19922;-49
2023/05/24 06:34:07;;;;;;;;;;;12.20;99.90;;;;;;5114752;28;19954;-45
2023/05/24 06:36:34;;;;;;;;;;;12.30;99.90;;;;;;5116124;28;19919;-45
2023/05/24 06:39:02;;;;;;;;;;;12.40;99.90;;;;;;5153919;27;20373;-44
2023/05/24 06:41:27;;;;;;;;;;;12.40;99.90;;;;;;5157075;27;19911;-44
2023/05/24 06:43:53;;;;;;;;;;;12.50;99.90;;;;;;5157828;27;20413;-44
2023/05/24 06:46:18;;;;;;;;;;;12.70;99.90;;;;;;5157615;27;19915;-44
2023/05/24 06:48:44;;;;;;;;;;;12.70;99.90;;;;;;5117390;27;19912;-44
2023/05/24 06:51:10;;;;;;;;;;;12.80;99.90;;;;;;5116249;28;19908;-43
2023/05/24 06:53:35;;;;;;;;;;;12.80;99.90;;;;;;5116228;28;19914;-43
2023/05/24 06:56:01;;;;;;;;;;;12.90;99.90;;;;;;5115570;28;20160;-44
2023/05/24 06:58:26;;;;;;;;;;;12.90;99.90;;;;;;5136546;27;20346;-44
2023/05/24 07:00:52;;;;;;;;;;;12.90;99.90;;;;;;5136726;27;19911;-44
2023/05/24 07:03:17;;;;;;;;;;;12.90;99.90;;;;;;5129418;27;19956;-44
2023/05/24 07:05:43;;;;;;;;;;;12.90;99.90;;;;;;5119438;27;20397;-46
2023/05/24 07:08:08;;;;;;;;;;;12.90;99.90;;;;;;5116368;28;19907;-45
2023/05/24 07:10:33;;;;;;;;;;;12.90;99.90;;;;;;5125066;27;19997;-44
2023/05/24 07:13:00;;;;;;;;;;;13.10;99.90;;;;;;5139638;27;19911;-44
2023/05/24 07:15:26;;;;;;;;;;;13.20;99.90;;;;;;5145776;27;19943;-44
2023/05/24 07:17:52;;;;;;;;;;;13.20;99.90;;;;;;5136452;27;19946;-45
2023/05/24 07:20:17;;;;;;;;;;;13.30;99.90;;;;;;5136747;27;19914;-43
2023/05/24 07:22:44;;;;;;;;;;;13.30;99.90;;;;;;5136228;27;19907;-44
2023/05/24 07:25:09;;;;;;;;;;;13.30;99.90;;;;;;5136324;27;19976;-44
2023/05/24 07:27:35;;;;;;;;;;;13.30;99.90;;;;;;5136718;27;20345;-44
2023/05/24 07:30:01;;;;;;;;;;;13.20;99.90;;;;;;5136413;27;19908;-46
2023/05/24 07:32:28;;;;;;;;;;;13.20;99.90;;;;;;5136424;27;19915;-44
2023/05/24 07:34:53;;;;;;;;;;;13.10;99.90;;;;;;5135779;27;19926;-44
2023/05/24 07:37:22;;;;;;;;;;;13.20;99.90;;;;;;5136057;27;19937;-43
2023/05/24 07:39:48;;;;;;;;;;;13.20;99.90;;;;;;5136557;27;19952;-44
2023/05/24 07:42:14;;;;;;;;;;;13.20;99.90;;;;;;5136163;27;19998;-46
2023/05/24 07:44:39;;;;;;;;;;;13.30;99.90;;;;;;5136012;27;19915;-46
2023/05/24 07:47:05;;;;;;;;;;;13.30;99.90;;;;;;5136292;27;19912;-43
2023/05/24 07:49:30;;;;;;;;;;;13.40;99.90;;;;;;5136209;27;20247;-44
2023/05/24 07:51:58;;;;;;;;;;;13.50;99.90;;;;;;5135949;27;19912;-48
2023/05/24 07:54:24;;;;;;;;;;;13.50;99.90;;;;;;5136152;27;19914;-44
2023/05/24 07:56:49;;;;;;;;;;;13.50;99.90;;;;;;5136129;27;19907;-44
2023/05/24 07:59:15;;;;;;;;;;;13.60;99.90;;;;;;5135461;27;19911;-45
2023/05/24 08:01:41;;;;;;;;;;;13.70;99.90;;;;;;5136498;27;19912;-44
2023/05/24 08:04:08;;;;;;;;;;;13.70;99.90;;;;;;5135429;27;20411;-46
2023/05/24 08:06:34;;;;;;;;;;;13.70;99.90;;;;;;5135222;27;19915;-47
2023/05/24 08:09:03;;;;;;;;;;;13.70;99.90;;;;;;5136152;27;19907;-45
2023/05/24 08:11:29;;;;;;;;;;;13.70;99.90;;;;;;5135783;27;19914;-45
2023/05/24 08:13:54;;;;;;;;;;;13.80;99.90;;;;;;5127374;27;19915;-46
2023/05/24 08:16:20;;;;;;;;;;;13.80;99.90;;;;;;5135750;27;19981;-45
2023/05/24 08:18:45;;;;;;;;;;;13.80;99.90;;;;;;5135787;27;19907;-45
2023/05/24 08:21:11;;;;;;;;;;;13.90;99.90;;;;;;5135220;27;20405;-43
2023/05/24 08:23:36;;;;;;;;;;;13.90;99.90;;;;;;5135595;27;19908;-46
2023/05/24 08:26:02;;;;;;;;;;;14.00;99.90;;;;;;5135270;27;19935;-45
2023/05/24 08:28:28;;;;;;;;;;;14.20;99.90;;;;;;5132812;27;19911;-43
2023/05/24 08:30:53;;;;;;;;;;;14.40;99.90;;;;;;5143550;27;19907;-49
2023/05/24 08:33:21;;;;;;;;;;;14.70;99.90;;;;;;5141837;27;19942;-45
2023/05/24 08:35:47;;;;;;;;;;;14.80;99.90;;;;;;5136721;27;20314;-44
2023/05/24 08:38:13;;;;;;;;;;;14.90;99.90;;;;;;5153789;27;19907;-45
2023/05/24 08:40:38;;;;;;;;;;;14.90;99.90;;;;;;5153242;27;20284;-46
2023/05/24 08:43:10;;;;;;;;;;;14.80;99.90;;;;;;5154397;27;19942;-46
2023/05/24 08:45:36;;;;;;;;;;;14.80;99.90;;;;;;5155733;27;20010;-45
2023/05/24 08:48:03;;;;;;;;;;;14.90;99.90;;;;;;5155363;27;20323;-46
2023/05/24 08:50:29;;;;;;;;;;;15.10;99.90;;;;;;5155701;27;20021;-44
2023/05/24 08:52:54;;;;;;;;;;;15.20;99.90;;;;;;5155486;27;20341;-45
2023/05/24 08:55:20;;;;;;;;;;;15.20;99.90;;;;;;5154747;27;20006;-45
2023/05/24 08:57:46;;;;;;;;;;;15.20;99.90;;;;;;5155187;27;19911;-46
2023/05/24 09:00:12;;;;;;;;;;;15.10;99.90;;;;;;5155383;27;19918;-45
2023/05/24 09:02:39;;;;;;;;;;;15.00;99.90;;;;;;5155000;27;19938;-44
2023/05/24 09:05:08;;;;;;;;;;;14.90;99.90;;;;;;5140490;27;19926;-47
2023/05/24 09:07:34;;;;;;;;;;;14.90;99.90;;;;;;5134802;27;19908;-45
2023/05/24 09:10:03;;;;;;;;;;;14.80;99.90;;;;;;5134617;27;19952;-44
2023/05/24 09:12:31;;;;;;;;;;;14.80;99.90;;;;;;5134254;27;19921;-45
2023/05/24 09:14:57;;;;;;;;;;;14.70;99.90;;;;;;5134828;27;19908;-49
2023/05/24 09:17:23;;;;;;;;;;;14.80;99.90;;;;;;5138069;27;19918;-44
2023/05/24 09:19:49;;;;;;;;;;;14.80;99.90;;;;;;5146679;27;19953;-45
2023/05/24 09:22:19;;;;;;;;;;;14.80;99.90;;;;;;5138736;27;19912;-44
2023/05/24 09:24:48;;;;;;;;;;;14.90;99.90;;;;;;5148156;27;20044;-46
2023/05/24 09:27:17;;;;;;;;;;;14.80;99.90;;;;;;5147012;27;20265;-48
2023/05/24 09:29:45;;;;;;;;;;;14.90;99.90;;;;;;5146243;27;19919;-46
2023/05/24 09:32:11;;;;;;;;;;;14.90;99.90;;;;;;5149926;27;19918;-44
2023/05/24 09:34:37;;;;;;;;;;;14.90;99.90;;;;;;5144396;27;19991;-46
2023/05/24 09:37:04;;;;;;;;;;;15.10;99.90;;;;;;5132711;27;19925;-44
2023/05/24 09:39:30;;;;;;;;;;;15.20;99.90;;;;;;5133339;27;19963;-49
2023/05/24 09:41:56;;;;;;;;;;;15.30;99.90;;;;;;5143696;27;19956;-48
2023/05/24 09:44:28;;;;;;;;;;;15.30;99.80;;;;;;5141277;27;19912;-47
2023/05/24 09:47:00;;;;;;;;;;;15.30;99.20;;;;;;5134205;27;20002;-45
2023/05/24 09:49:25;;;;;;;;;;;15.20;98.90;;;;;;5134123;28;19912;-48
2023/05/24 09:51:51;;;;;;;;;;;15.30;99.10;;;;;;5133757;28;19960;-47
2023/05/24 09:54:17;;;;;;;;;;;15.30;98.50;;;;;;5134066;28;19907;-46
2023/05/24 09:56:45;;;;;;;;;;;15.50;98.80;;;;;;5134320;28;19907;-45
2023/05/24 09:59:10;;;;;;;;;;;15.50;98.70;;;;;;5133388;28;20340;-46
2023/05/24 10:01:36;;;;;;;;;;;15.50;98.90;;;;;;5134014;28;20002;-46
2023/05/24 10:04:05;;;;;;;;;;;15.60;98.50;;;;;;5134045;28;19933;-44
2023/05/24 10:06:34;;;;;;;;;;;15.50;98.60;;;;;;5132268;28;19980;-46
2023/05/24 10:08:59;;;;;;;;;;;15.50;98.60;;;;;;5133879;28;19939;-45
2023/05/24 10:11:25;;;;;;;;;;;15.60;98.80;;;;;;5133707;28;19911;-44
2023/05/24 10:13:51;;;;;;;;;;;15.70;98.40;;;;;;5133048;28;19958;-45
2023/05/24 10:16:17;;;;;;;;;;;15.80;98.50;;;;;;5133619;28;19907;-45
2023/05/24 10:18:43;;;;;;;;;;;15.80;98.00;;;;;;5133262;28;19915;-45
2023/05/24 10:21:09;;;;;;;;;;;15.90;97.80;;;;;;5133710;28;20425;-45
2023/05/24 10:23:36;;;;;;;;;;;16.00;98.40;;;;;;5133741;28;19911;-45
2023/05/24 10:26:05;;;;;;;;;;;16.10;98.60;;;;;;5133166;28;19919;-44
2023/05/24 10:28:32;;;;;;;;;;;16.20;98.40;;;;;;5133645;28;19918;-45
2023/05/24 10:30:57;;;;;;;;;;;16.30;98.00;;;;;;5133718;28;19914;-48
2023/05/24 10:33:23;;;;;;;;;;;16.40;98.00;;;;;;5133456;28;19908;-46
2023/05/24 10:35:50;;;;;;;;;;;16.40;97.60;;;;;;5133347;28;20014;-45
2023/05/24 10:38:15;;;;;;;;;;;16.40;97.40;;;;;;5132817;28;19975;-46
2023/05/24 10:40:41;;;;;;;;;;;16.30;96.70;;;;;;5133314;28;19907;-45
2023/05/24 10:43:07;;;;;;;;;;;16.30;96.90;;;;;;5133640;28;19952;-46
2023/05/24 10:45:35;;;;;;;;;;;16.40;97.10;;;;;;5133134;28;19919;-47
2023/05/24 10:48:06;;;;;;;;;;;16.40;97.40;;;;;;5133010;28;20376;-45
2023/05/24 10:50:32;;;;;;;;;;;16.50;95.50;;;;;;5128963;28;20435;-48
2023/05/24 10:53:10;;;;;;;;;;;16.50;96.70;;;;;;5123115;27;19911;-48
2023/05/24 10:55:49;;;;;;;;;;;16.60;96.90;;;;;;5123528;28;19954;-45
2023/05/24 10:58:15;;;;;;;;;;;16.60;96.80;;;;;;5130627;27;19914;-46
2023/05/24 11:00:43;;;;;;;;;;;16.70;96.60;;;;;;5136899;27;19908;-45
2023/05/24 11:03:09;;;;;;;;;;;16.70;96.30;;;;;;5136726;27;19963;-46
2023/05/24 11:05:56;;;;;;;;;;;16.70;96.10;;;;;;5136467;27;19930;-48
2023/05/24 11:08:24;;;;;;;;;;;16.70;95.90;;;;;;5136639;27;20005;-48
2023/05/24 11:11:00;;;;;;;;;;;16.60;95.90;;;;;;5137121;27;19907;-43
2023/05/24 11:13:26;;;;;;;;;;;16.50;94.60;;;;;;5130366;27;20423;-46
2023/05/24 11:15:52;;;;;;;;;;;16.50;93.50;;;;;;5115900;28;19908;-46
2023/05/24 11:18:21;;;;;;;;;;;16.50;94.50;;;;;;5138239;27;19955;-44
2023/05/24 11:20:46;;;;;;;;;;;16.50;91.50;;;;;;5154037;27;20357;-45
2023/05/24 11:23:13;;;;;;;;;;;16.60;93.70;;;;;;5133891;27;19919;-44
2023/05/24 11:25:39;;;;;;;;;;;16.80;93.70;;;;;;5148011;27;19919;-46
2023/05/24 11:28:09;;;;;;;;;;;16.80;93.60;;;;;;5140701;27;19911;-46
2023/05/24 11:30:41;;;;;;;;;;;16.80;93.10;;;;;;5123121;27;19934;-46
2023/05/24 11:33:14;;;;;;;;;;;16.80;93.30;;;;;;5146375;27;20432;-46
2023/05/24 11:35:39;;;;;;;;;;;16.70;93.50;;;;;;5133734;27;19980;-46
2023/05/24 11:38:10;;;;;;;;;;;16.50;93.80;;;;;;5135325;27;20002;-46
2023/05/24 11:40:37;;;;;;;;;;;16.50;93.70;;;;;;5135846;27;20397;-48
2023/05/24 11:43:05;;;;;;;;;;;16.30;94.10;;;;;;5132618;27;19912;-44
2023/05/24 11:45:31;;;;;;;;;;;16.20;94.00;;;;;;5126334;27;19938;-46
2023/05/24 11:47:56;;;;;;;;;;;16.20;94.10;;;;;;5135846;27;20346;-45
2023/05/24 11:50:25;;;;;;;;;;;16.10;94.60;;;;;;5141676;27;19907;-45
2023/05/24 11:52:50;;;;;;;;;;;16.10;94.50;;;;;;5157193;27;19930;-48
2023/05/24 11:55:22;;;;;;;;;;;16.10;95.00;;;;;;5156943;27;20353;-44
2023/05/24 11:57:52;;;;;;;;;;;16.10;95.10;;;;;;5156621;27;20477;-46
2023/05/24 12:00:24;;;;;;;;;;;16.00;95.30;;;;;;5156898;27;19907;-47
2023/05/24 12:02:51;;;;;;;;;;;16.00;95.60;;;;;;5157038;27;19907;-45
2023/05/24 12:05:21;;;;;;;;;;;16.00;95.90;;;;;;5145411;27;19979;-47
2023/05/24 12:07:47;;;;;;;;;;;16.10;96.20;;;;;;5115235;28;19915;-44
2023/05/24 12:10:14;;;;;;;;;;;16.10;95.90;;;;;;5115531;28;19911;-44
2023/05/24 12:12:43;;;;;;;;;;;16.20;96.40;;;;;;5114893;28;19908;-45
2023/05/24 12:15:09;;;;;;;;;;;16.30;96.10;;;;;;5115314;28;20295;-44
2023/05/24 12:17:35;;;;;;;;;;;16.50;96.10;;;;;;5115431;28;19907;-45
2023/05/24 12:20:01;;;;;;;;;;;16.60;96.30;;;;;;5114656;28;19915;-45
2023/05/24 12:22:27;;;;;;;;;;;16.70;96.50;;;;;;5118796;27;19918;-44
2023/05/24 12:24:52;;;;;;;;;;;16.80;97.00;;;;;;5131794;27;19920;-46
2023/05/24 12:27:18;;;;;;;;;;;16.90;96.60;;;;;;5125292;27;19911;-44
2023/05/24 12:29:43;;;;;;;;;;;16.90;96.10;;;;;;5125503;27;20238;-44
2023/05/24 12:32:12;;;;;;;;;;;16.90;96.20;;;;;;5134449;27;19918;-47
2023/05/24 12:34:41;;;;;;;;;;;16.90;96.20;;;;;;5132666;27;19911;-44
2023/05/24 12:37:07;;;;;;;;;;;16.70;96.00;;;;;;5141847;27;19987;-49
2023/05/24 12:39:34;;;;;;;;;;;16.60;95.90;;;;;;5142390;27;19908;-44
2023/05/24 12:42:00;;;;;;;;;;;16.40;95.50;;;;;;5142980;27;19957;-44
2023/05/24 12:44:28;;;;;;;;;;;16.30;95.60;;;;;;5153118;27;19953;-49
2023/05/24 12:46:54;;;;;;;;;;;16.20;95.80;;;;;;5155574;27;19964;-45
2023/05/24 12:49:23;;;;;;;;;;;16.10;96.10;;;;;;5155281;27;20273;-44
2023/05/24 12:51:49;;;;;;;;;;;16.00;96.20;;;;;;5139897;27;19964;-44
2023/05/24 12:54:17;;;;;;;;;;;15.90;96.40;;;;;;5137834;27;19911;-45
2023/05/24 12:56:42;;;;;;;;;;;15.90;97.00;;;;;;5143886;27;20013;-45
2023/05/24 12:59:08;;;;;;;;;;;15.80;96.70;;;;;;5150442;27;19944;-46
2023/05/24 13:01:34;;;;;;;;;;;15.90;96.80;;;;;;5150988;27;20276;-44
2023/05/24 13:04:00;;;;;;;;;;;15.80;96.60;;;;;;5138526;27;19939;-46
2023/05/24 13:06:25;;;;;;;;;;;15.80;96.40;;;;;;5131791;27;20447;-44
2023/05/24 13:08:51;;;;;;;;;;;15.90;96.40;;;;;;5132344;27;19911;-45
2023/05/24 13:11:16;;;;;;;;;;;15.90;96.50;;;;;;5144186;27;20357;-46
2023/05/24 13:13:43;;;;;;;;;;;16.00;96.20;;;;;;5149970;27;19934;-44
2023/05/24 13:16:09;;;;;;;;;;;16.00;96.30;;;;;;5112963;28;19994;-44
2023/05/24 13:18:36;;;;;;;;;;;16.10;96.20;;;;;;5113038;28;19911;-45
2023/05/24 13:21:04;;;;;;;;;;;16.10;96.10;;;;;;5112944;28;19919;-47
2023/05/24 13:23:30;;;;;;;;;;;16.10;96.40;;;;;;5130212;27;20400;-47
2023/05/24 13:25:56;;;;;;;;;;;16.10;96.20;;;;;;5116382;27;19923;-45
2023/05/24 13:28:21;;;;;;;;;;;16.10;96.30;;;;;;5128475;27;19911;-44
2023/05/24 13:30:47;;;;;;;;;;;16.10;96.30;;;;;;5139527;27;19958;-48
2023/05/24 13:33:13;;;;;;;;;;;16.00;96.40;;;;;;5150342;27;19922;-46
2023/05/24 13:35:38;;;;;;;;;;;16.00;96.50;;;;;;5136280;27;21467;-47
2023/05/24 13:38:04;;;;;;;;;;;16.00;96.60;;;;;;5150011;27;20433;-45
2023/05/24 13:40:30;;;;;;;;;;;15.90;96.60;;;;;;5135936;27;20270;-44
2023/05/24 13:42:56;;;;;;;;;;;15.90;96.70;;;;;;5143817;27;19915;-48
2023/05/24 13:45:22;;;;;;;;;;;15.90;96.90;;;;;;5144718;27;19963;-47
2023/05/24 13:47:47;;;;;;;;;;;15.90;96.50;;;;;;5137442;27;19915;-44
2023/05/24 13:50:13;;;;;;;;;;;15.90;96.30;;;;;;5131675;27;19934;-44
2023/05/24 13:52:38;;;;;;;;;;;15.90;96.50;;;;;;5133475;27;20464;-45
2023/05/24 13:55:04;;;;;;;;;;;15.90;96.40;;;;;;5151313;27;19912;-44
2023/05/24 13:57:30;;;;;;;;;;;15.90;96.50;;;;;;5137124;27;20251;-45
2023/05/24 13:59:57;;;;;;;;;;;15.90;96.30;;;;;;5124375;27;19915;-46
2023/05/24 14:02:22;;;;;;;;;;;16.00;96.40;;;;;;5137267;27;19919;-46
2023/05/24 14:04:48;;;;;;;;;;;16.00;96.30;;;;;;5154107;27;19911;-44
2023/05/24 14:07:14;;;;;;;;;;;16.10;96.00;;;;;;5154979;27;19911;-45
2023/05/24 14:09:40;;;;;;;;;;;16.10;96.00;;;;;;5138219;27;20002;-44
2023/05/24 14:12:07;;;;;;;;;;;16.10;95.80;;;;;;5131355;28;19919;-48
2023/05/24 14:14:32;;;;;;;;;;;16.10;95.50;;;;;;5133657;28;20443;-45
2023/05/24 14:16:58;;;;;;;;;;;16.10;95.60;;;;;;5134360;28;20024;-44